Time;durP1;ratioP1;P1;durP2;ratioP2;P2;SDS_P1;SDS_P2;PMS_P1;PMS_P2;Temp;Humidity;BMP_temperature;BMP_pressure;BME280_temperature;BME280_humidity;BME280_pressure;Samples;Min_cycle;Max_cycle;Signal;HPM_P1;HPM_P2
2023/10/25 00:03:10;;;;;;;21.80;15.30;;;12.50;99.90;;;;;;10278095;28;20264;-85
2023/10/25 00:08:13;;;;;;;26.83;20.60;;;12.60;99.90;;;;;;10288964;28;20560;-86
2023/10/25 00:13:15;;;;;;;21.83;13.37;;;12.60;99.90;;;;;;10288451;28;20233;-86
2023/10/25 00:18:18;;;;;;;26.37;20.17;;;12.60;99.90;;;;;;10289387;28;20663;-86
2023/10/25 00:23:21;;;;;;;29.23;20.20;;;12.70;99.90;;;;;;10292205;28;20202;-86
2023/10/25 00:28:24;;;;;;;25.40;17.57;;;12.70;99.90;;;;;;10272238;28;20242;-85
2023/10/25 00:33:26;;;;;;;32.30;22.47;;;12.60;99.90;;;;;;10233493;29;20211;-85
2023/10/25 00:38:28;;;;;;;30.73;22.40;;;12.50;99.90;;;;;;10250674;28;20304;-86
2023/10/25 00:43:32;;;;;;;31.57;22.67;;;12.50;99.90;;;;;;10289015;28;20580;-85
2023/10/25 00:48:36;;;;;;;29.07;22.27;;;12.50;99.90;;;;;;10252713;28;20242;-86
2023/10/25 00:53:42;;;;;;;24.53;18.37;;;12.40;99.90;;;;;;10272549;28;20233;-86
2023/10/25 00:58:54;;;;;;;12.77;10.03;;;12.50;99.90;;;;;;10276089;28;20289;-86
2023/10/25 01:03:57;;;;;;;32.03;22.67;;;12.50;99.90;;;;;;10255755;29;20225;-86
2023/10/25 01:09:00;;;;;;;30.10;22.17;;;12.50;99.90;;;;;;10244162;28;20315;-86
2023/10/25 01:14:02;;;;;;;26.87;19.73;;;12.40;99.90;;;;;;10274177;28;20652;-86
2023/10/25 01:19:05;;;;;;;14.40;9.77;;;12.50;99.90;;;;;;10277825;28;20264;-85
2023/10/25 01:24:08;;;;;;;20.30;15.97;;;12.50;99.90;;;;;;10254324;29;20206;-85
2023/10/25 01:29:10;;;;;;;22.00;18.20;;;12.60;99.90;;;;;;10241826;28;20218;-85
2023/10/25 01:34:13;;;;;;;27.70;23.23;;;12.50;99.90;;;;;;10255795;29;20202;-85
2023/10/25 01:39:15;;;;;;;28.87;20.47;;;12.50;99.90;;;;;;10264016;28;20269;-85
2023/10/25 01:44:19;;;;;;;34.20;20.67;;;12.40;99.90;;;;;;10292377;28;20218;-85
2023/10/25 01:49:23;;;;;;;28.80;21.50;;;12.40;99.90;;;;;;10252921;29;20556;-85
2023/10/25 01:54:26;;;;;;;22.60;17.27;;;12.30;99.90;;;;;;10237347;29;20210;-85
2023/10/25 01:59:29;;;;;;;23.57;17.57;;;12.40;99.90;;;;;;10266925;28;20308;-85
2023/10/25 02:04:31;;;;;;;25.23;18.97;;;12.40;99.90;;;;;;10276396;28;20201;-85
2023/10/25 02:09:34;;;;;;;23.03;17.03;;;12.40;99.90;;;;;;10245714;28;20215;-86
2023/10/25 02:14:37;;;;;;;25.43;19.80;;;12.40;99.90;;;;;;10293645;28;20206;-86
2023/10/25 02:19:39;;;;;;;10.97;9.03;;;12.50;99.90;;;;;;10286019;28;20630;-86
2023/10/25 02:24:43;;;;;;;20.07;16.67;;;12.40;99.90;;;;;;10254202;28;20636;-85
2023/10/25 02:29:46;;;;;;;26.17;18.60;;;12.50;99.90;;;;;;10261252;28;20201;-86
2023/10/25 02:34:48;;;;;;;25.23;18.90;;;12.50;99.90;;;;;;10276052;28;20201;-85
2023/10/25 02:39:51;;;;;;;25.00;19.30;;;12.30;99.90;;;;;;10274504;28;20811;-85
2023/10/25 02:44:54;;;;;;;18.90;13.63;;;12.40;99.90;;;;;;10292339;28;20201;-85
2023/10/25 02:49:57;;;;;;;21.43;17.70;;;12.40;99.90;;;;;;10266605;28;20740;-85
2023/10/25 02:55:00;;;;;;;24.37;18.43;;;12.40;99.90;;;;;;10251434;29;20211;-85
2023/10/25 03:00:06;;;;;;;25.17;18.33;;;12.40;99.90;;;;;;10259117;28;20265;-86
2023/10/25 03:05:08;;;;;;;25.70;17.67;;;12.20;99.90;;;;;;10252277;28;20207;-85
2023/10/25 03:10:11;;;;;;;22.17;16.47;;;12.20;99.90;;;;;;10249574;28;20625;-87
2023/10/25 03:15:13;;;;;;;19.03;14.10;;;12.30;99.90;;;;;;10272245;28;20313;-87
2023/10/25 03:20:16;;;;;;;22.37;15.43;;;12.30;99.90;;;;;;10271286;28;20319;-87
2023/10/25 03:25:18;;;;;;;26.17;18.20;;;12.30;99.90;;;;;;10288359;28;21013;-87
2023/10/25 03:30:22;;;;;;;21.57;16.97;;;12.40;99.90;;;;;;10288604;28;20241;-87
2023/10/25 03:35:26;;;;;;;23.23;17.43;;;12.40;99.90;;;;;;10287823;28;20213;-87
2023/10/25 03:40:28;;;;;;;20.23;15.40;;;12.40;99.90;;;;;;10269352;28;20288;-87
2023/10/25 03:45:31;;;;;;;20.73;15.80;;;12.40;99.90;;;;;;10269880;28;20280;-86
2023/10/25 03:50:33;;;;;;;18.80;15.00;;;12.60;99.90;;;;;;10271636;28;20280;-86
2023/10/25 03:55:36;;;;;;;25.50;18.03;;;12.60;99.90;;;;;;10288955;28;20267;-86
2023/10/25 04:00:38;;;;;;;19.77;15.63;;;12.60;99.90;;;;;;10286598;28;20332;-86
2023/10/25 04:05:41;;;;;;;19.17;15.37;;;12.60;99.90;;;;;;10285078;28;20268;-86
2023/10/25 04:10:52;;;;;;;23.00;17.77;;;12.60;99.90;;;;;;10284924;28;20238;-86
2023/10/25 04:16:00;;;;;;;18.40;14.37;;;12.60;99.90;;;;;;10266000;28;20606;-86
2023/10/25 04:21:08;;;;;;;17.50;13.33;;;12.50;99.90;;;;;;10267710;28;20737;-86
2023/10/25 04:26:12;;;;;;;18.03;14.17;;;12.60;99.90;;;;;;10284125;28;20292;-86
2023/10/25 04:31:17;;;;;;;16.27;13.03;;;12.50;99.90;;;;;;10284390;28;20225;-86
2023/10/25 04:36:19;;;;;;;15.27;11.80;;;12.50;99.90;;;;;;10277826;28;20273;-86
2023/10/25 04:41:22;;;;;;;16.60;13.80;;;12.40;99.90;;;;;;10267131;28;20274;-86
2023/10/25 04:46:24;;;;;;;18.17;14.17;;;12.50;99.90;;;;;;10307080;28;20231;-86
2023/10/25 04:51:27;;;;;;;17.13;13.90;;;12.40;99.90;;;;;;10293111;28;20266;-86
2023/10/25 04:56:29;;;;;;;17.60;13.13;;;12.40;99.90;;;;;;10285474;28;20700;-86
2023/10/25 05:01:32;;;;;;;14.87;11.60;;;12.30;99.90;;;;;;10284136;28;20302;-85
2023/10/25 05:06:35;;;;;;;18.70;14.17;;;12.30;99.90;;;;;;10279723;28;20240;-86
2023/10/25 05:11:41;;;;;;;15.23;12.97;;;12.40;99.90;;;;;;10257443;28;20237;-85
2023/10/25 05:16:43;;;;;;;16.67;13.47;;;12.30;99.90;;;;;;10277322;28;20233;-86
2023/10/25 05:21:49;;;;;;;14.23;11.20;;;12.30;99.90;;;;;;10275687;28;20660;-87
2023/10/25 05:26:52;;;;;;;16.13;12.67;;;12.20;99.90;;;;;;10283818;28;20230;-87
2023/10/25 05:31:58;;;;;;;18.27;13.60;;;12.30;99.90;;;;;;10284598;28;20237;-87
2023/10/25 05:37:01;;;;;;;14.50;11.87;;;12.30;99.90;;;;;;10283562;28;20234;-84
2023/10/25 05:42:05;;;;;;;17.33;13.60;;;12.30;99.90;;;;;;10300905;28;20320;-87
2023/10/25 05:47:11;;;;;;;15.80;12.40;;;12.50;99.90;;;;;;10310789;28;20204;-87
2023/10/25 05:52:14;;;;;;;15.33;12.63;;;12.50;99.90;;;;;;10305579;28;20845;-87
2023/10/25 05:57:17;;;;;;;17.93;12.87;;;12.60;99.90;;;;;;10291852;28;20314;-87
2023/10/25 06:02:26;;;;;;;16.43;13.63;;;12.60;99.90;;;;;;10310941;28;20257;-87
2023/10/25 06:07:29;;;;;;;12.53;10.80;;;12.60;99.90;;;;;;10271489;28;20233;-88
2023/10/25 06:12:32;;;;;;;14.73;12.40;;;12.50;99.90;;;;;;10260447;28;20363;-87
2023/10/25 06:17:35;;;;;;;12.07;10.30;;;12.50;99.90;;;;;;10292127;28;20691;-87
2023/10/25 06:22:37;;;;;;;13.17;10.80;;;12.60;99.90;;;;;;10273541;28;20299;-87
2023/10/25 06:27:40;;;;;;;13.97;11.27;;;12.70;99.90;;;;;;10289936;28;20731;-86
2023/10/25 06:32:42;;;;;;;14.73;11.70;;;12.70;99.90;;;;;;10285776;28;20704;-87
2023/10/25 06:37:45;;;;;;;15.53;13.30;;;12.70;99.90;;;;;;10272123;28;20233;-87
2023/10/25 06:42:48;;;;;;;12.33;10.17;;;12.30;99.90;;;;;;10290209;28;20304;-86
2023/10/25 06:47:51;;;;;;;13.20;9.70;;;12.50;99.90;;;;;;10289886;28;20300;-86
2023/10/25 06:52:54;;;;;;;16.30;10.87;;;12.50;99.90;;;;;;10272610;28;20696;-86
2023/10/25 06:57:56;;;;;;;9.90;8.50;;;12.60;99.90;;;;;;10288443;28;20273;-86
2023/10/25 07:03:02;;;;;;;12.23;10.07;;;12.80;99.90;;;;;;10287114;28;20328;-86
2023/10/25 07:08:05;;;;;;;10.07;8.13;;;12.90;99.90;;;;;;10270087;28;20237;-87
2023/10/25 07:13:08;;;;;;;14.43;9.00;;;12.90;99.90;;;;;;10287647;28;20241;-88
2023/10/25 07:18:11;;;;;;;13.47;10.20;;;13.00;99.90;;;;;;10286156;28;20247;-87
2023/10/25 07:23:13;;;;;;;13.23;10.70;;;13.00;99.90;;;;;;10292878;28;20312;-87
2023/10/25 07:28:16;;;;;;;14.77;10.13;;;13.00;99.90;;;;;;10306036;28;20674;-87
2023/10/25 07:33:20;;;;;;;9.70;8.63;;;12.90;99.90;;;;;;10269665;28;20236;-86
2023/10/25 07:38:23;;;;;;;11.70;9.50;;;12.90;99.90;;;;;;10240009;28;20327;-87
2023/10/25 07:43:25;;;;;;;11.07;9.47;;;13.00;99.90;;;;;;10285430;28;20257;-87
2023/10/25 07:48:28;;;;;;;11.43;8.40;;;13.00;99.90;;;;;;10286161;28;20229;-87
2023/10/25 07:53:31;;;;;;;14.20;10.13;;;13.00;99.90;;;;;;10283970;28;20237;-87
2023/10/25 07:58:34;;;;;;;11.30;8.47;;;13.00;99.90;;;;;;10270099;28;20645;-87
2023/10/25 08:03:36;;;;;;;8.27;7.47;;;13.10;99.90;;;;;;10286669;28;20308;-87
2023/10/25 08:08:39;;;;;;;8.97;8.07;;;13.10;99.90;;;;;;10269242;28;20289;-87
2023/10/25 08:13:44;;;;;;;9.53;8.50;;;13.20;99.90;;;;;;10286146;28;20948;-87
2023/10/25 08:18:47;;;;;;;9.20;7.07;;;13.20;99.90;;;;;;10284554;28;20296;-87
2023/10/25 08:23:51;;;;;;;9.40;8.40;;;13.20;99.90;;;;;;10284866;28;20309;-88
2023/10/25 08:28:54;;;;;;;9.90;8.87;;;13.20;99.90;;;;;;10276751;28;20273;-88
2023/10/25 08:33:57;;;;;;;15.20;8.93;;;13.20;99.90;;;;;;10266519;28;20234;-87
2023/10/25 08:38:59;;;;;;;10.93;8.83;;;13.20;99.90;;;;;;10268169;28;20261;-87
2023/10/25 08:44:03;;;;;;;12.63;9.17;;;13.30;99.90;;;;;;10284260;28;20245;-87
2023/10/25 08:49:06;;;;;;;12.07;9.27;;;13.40;99.90;;;;;;10281618;28;20233;-87
2023/10/25 08:54:09;;;;;;;12.60;10.27;;;13.30;99.90;;;;;;10284244;28;20241;-87
2023/10/25 08:59:11;;;;;;;10.80;9.23;;;13.30;99.90;;;;;;10281724;28;20308;-87
2023/10/25 09:04:14;;;;;;;13.33;10.50;;;13.20;99.90;;;;;;10245048;29;20289;-87
2023/10/25 09:09:17;;;;;;;13.13;8.30;;;13.10;99.90;;;;;;10244337;29;20298;-87
2023/10/25 09:14:19;;;;;;;11.23;9.60;;;13.10;99.90;;;;;;10272894;28;20242;-87
2023/10/25 09:19:25;;;;;;;13.10;9.47;;;13.20;99.90;;;;;;10276722;28;20741;-87
2023/10/25 09:24:29;;;;;;;15.70;10.77;;;13.20;99.90;;;;;;10289059;28;20273;-87
2023/10/25 09:29:35;;;;;;;12.13;9.70;;;13.20;99.90;;;;;;10322450;28;20291;-87
2023/10/25 09:34:38;;;;;;;13.30;10.20;;;13.40;99.90;;;;;;10277675;28;20236;-88
2023/10/25 09:39:41;;;;;;;14.40;10.80;;;13.50;99.90;;;;;;10290733;28;20359;-86
2023/10/25 09:44:47;;;;;;;15.70;12.37;;;13.30;99.90;;;;;;10326158;28;20698;-86
2023/10/25 09:50:02;;;;;;;13.23;9.57;;;13.30;99.90;;;;;;10293313;28;20300;-85
2023/10/25 09:55:20;;;;;;;13.03;8.93;;;13.20;99.90;;;;;;10308524;28;20231;-86
2023/10/25 10:00:23;;;;;;;15.47;11.40;;;13.40;99.90;;;;;;10304074;28;20309;-86
2023/10/25 10:06:16;;;;;;;11.97;8.47;;;13.50;99.90;;;;;;10324217;28;20711;-86
2023/10/25 10:11:25;;;;;;;11.87;8.87;;;13.50;99.90;;;;;;10270789;28;20239;-86
2023/10/25 10:16:28;;;;;;;10.47;8.57;;;13.70;99.90;;;;;;10331343;28;20685;-86
2023/10/25 10:21:30;;;;;;;7.73;6.93;;;13.60;99.90;;;;;;10330735;28;20260;-86
2023/10/25 10:26:46;;;;;;;9.47;8.43;;;13.70;99.90;;;;;;10292409;28;20713;-85
2023/10/25 10:31:56;;;;;;;10.77;8.87;;;13.70;99.90;;;;;;10272930;28;20717;-86
2023/10/25 10:37:17;;;;;;;12.63;8.90;;;13.80;99.90;;;;;;10272879;28;20241;-86
2023/10/25 10:42:20;;;;;;;16.60;11.67;;;13.70;99.90;;;;;;10267166;28;20287;-86
2023/10/25 10:47:33;;;;;;;12.20;9.40;;;13.60;99.90;;;;;;10269780;28;20230;-86
2023/10/25 10:52:35;;;;;;;17.43;10.53;;;13.60;99.90;;;;;;10290046;28;20233;-86
2023/10/25 10:57:39;;;;;;;8.20;7.13;;;13.50;99.90;;;;;;10289290;28;20262;-86
2023/10/25 11:03:03;;;;;;;10.60;7.57;;;13.40;99.90;;;;;;10301896;28;20328;-86
2023/10/25 11:08:13;;;;;;;11.20;8.23;;;13.70;99.90;;;;;;10286150;28;20241;-86
2023/10/25 11:13:17;;;;;;;10.93;8.43;;;13.70;99.90;;;;;;10287504;28;20236;-86
2023/10/25 11:18:19;;;;;;;11.83;8.63;;;13.70;99.90;;;;;;10262394;28;20646;-86
2023/10/25 11:23:22;;;;;;;16.13;11.57;;;13.80;99.90;;;;;;10281605;28;20284;-86
2023/10/25 11:28:26;;;;;;;16.97;11.87;;;13.60;99.90;;;;;;10283606;28;20294;-86
2023/10/25 11:33:29;;;;;;;12.77;10.10;;;13.60;99.90;;;;;;10284757;28;20270;-86
2023/10/25 11:38:32;;;;;;;16.80;10.83;;;13.60;99.90;;;;;;10266650;28;20696;-86
2023/10/25 11:43:35;;;;;;;13.53;10.07;;;13.60;99.90;;;;;;10286322;28;20265;-86
2023/10/25 11:48:37;;;;;;;14.93;11.10;;;13.60;99.90;;;;;;10267997;28;20267;-86
2023/10/25 11:53:40;;;;;;;16.80;11.37;;;13.70;99.90;;;;;;10285545;28;20245;-86
2023/10/25 11:58:43;;;;;;;13.30;9.37;;;13.60;99.90;;;;;;10284577;28;20269;-86
2023/10/25 12:03:45;;;;;;;17.17;11.93;;;13.60;99.90;;;;;;10284975;28;20730;-86
2023/10/25 12:08:49;;;;;;;18.80;12.30;;;13.60;99.90;;;;;;10284434;28;20242;-86
2023/10/25 12:13:51;;;;;;;12.97;10.73;;;13.60;99.90;;;;;;10268492;28;20241;-86
2023/10/25 12:18:54;;;;;;;12.27;9.83;;;13.50;99.90;;;;;;10284430;28;20241;-86
2023/10/25 12:23:56;;;;;;;11.77;7.73;;;13.70;99.90;;;;;;10281958;28;20260;-86
2023/10/25 12:28:59;;;;;;;17.07;10.90;;;13.80;99.90;;;;;;10284276;28;20235;-86
2023/10/25 12:34:01;;;;;;;12.13;9.50;;;13.90;99.90;;;;;;10264213;28;20774;-86
2023/10/25 12:39:05;;;;;;;8.60;6.67;;;13.90;99.90;;;;;;10282174;28;20269;-86
2023/10/25 12:44:12;;;;;;;10.70;8.70;;;14.00;99.90;;;;;;10266727;28;20262;-85
2023/10/25 12:49:16;;;;;;;14.63;9.90;;;14.00;99.90;;;;;;10284834;28;20257;-86
2023/10/25 12:54:19;;;;;;;10.13;9.00;;;14.10;99.90;;;;;;10290078;28;20243;-86
2023/10/25 12:59:22;;;;;;;18.33;12.03;;;14.30;99.90;;;;;;10271934;28;20249;-86
2023/10/25 13:04:24;;;;;;;14.23;9.13;;;14.20;99.90;;;;;;10290189;28;20653;-87
2023/10/25 13:09:27;;;;;;;10.40;8.33;;;14.10;99.90;;;;;;10291907;28;20690;-87
2023/10/25 13:14:29;;;;;;;8.10;6.70;;;14.30;99.90;;;;;;10288966;28;20692;-86
2023/10/25 13:19:33;;;;;;;10.50;7.73;;;14.40;99.90;;;;;;10291107;28;20244;-87
2023/10/25 13:24:35;;;;;;;15.13;10.13;;;14.50;99.90;;;;;;10273801;28;20271;-87
2023/10/25 13:29:38;;;;;;;9.60;6.30;;;14.50;99.90;;;;;;10244901;28;20276;-86
2023/10/25 13:34:42;;;;;;;8.77;6.43;;;14.50;99.90;;;;;;10250716;29;20293;-87
2023/10/25 13:39:45;;;;;;;10.83;7.67;;;14.50;99.90;;;;;;10251552;28;20269;-85
2023/10/25 13:44:48;;;;;;;13.23;9.87;;;14.50;99.90;;;;;;10251473;28;20258;-83
2023/10/25 13:49:51;;;;;;;12.83;8.77;;;14.40;99.90;;;;;;10270107;28;20227;-84
2023/10/25 13:54:53;;;;;;;12.37;9.30;;;14.30;99.90;;;;;;10299450;28;20696;-86
2023/10/25 13:59:58;;;;;;;13.47;9.70;;;14.40;99.90;;;;;;10289414;28;20274;-86
2023/10/25 14:05:02;;;;;;;11.23;8.57;;;14.20;99.90;;;;;;10270248;28;20319;-86
2023/10/25 14:10:06;;;;;;;10.80;8.40;;;14.20;99.90;;;;;;10325377;28;20646;-86
2023/10/25 14:15:11;;;;;;;11.07;8.30;;;14.20;99.90;;;;;;10322153;28;20239;-86
2023/10/25 14:20:14;;;;;;;7.70;6.90;;;14.20;99.90;;;;;;10289608;28;20341;-86
2023/10/25 14:25:17;;;;;;;11.90;9.40;;;14.30;99.90;;;;;;10289864;28;20241;-86
2023/10/25 14:30:19;;;;;;;12.03;9.43;;;14.20;99.90;;;;;;10287522;28;20820;-86
2023/10/25 14:35:22;;;;;;;7.97;6.07;;;14.00;99.90;;;;;;10292701;28;20241;-86
2023/10/25 14:40:24;;;;;;;5.67;5.10;;;14.00;99.90;;;;;;10287460;28;20257;-86
2023/10/25 14:45:28;;;;;;;8.33;6.43;;;14.00;99.90;;;;;;10322273;28;20244;-86
2023/10/25 14:50:37;;;;;;;10.77;8.70;;;14.20;99.90;;;;;;10302749;28;20316;-86
2023/10/25 14:55:40;;;;;;;8.53;7.37;;;14.20;99.90;;;;;;10288537;28;20239;-86
2023/10/25 15:00:43;;;;;;;9.00;7.30;;;14.20;99.90;;;;;;10288249;28;20256;-86
2023/10/25 15:05:50;;;;;;;7.90;6.70;;;14.20;99.90;;;;;;10288450;28;20290;-86
2023/10/25 15:10:53;;;;;;;11.60;7.73;;;14.20;99.90;;;;;;10284173;28;20244;-88
2023/10/25 15:15:59;;;;;;;14.27;9.87;;;14.40;99.90;;;;;;10286032;28;20285;-88
2023/10/25 15:21:02;;;;;;;15.47;11.70;;;14.40;99.90;;;;;;10285992;28;20969;-87
2023/10/25 15:26:05;;;;;;;16.67;11.50;;;14.20;99.90;;;;;;10286769;28;20225;-87
2023/10/25 15:31:08;;;;;;;15.07;9.83;;;14.40;99.90;;;;;;10298492;28;20243;-87
2023/10/25 15:36:11;;;;;;;22.53;15.13;;;14.20;99.90;;;;;;10285219;28;20225;-87
2023/10/25 15:41:17;;;;;;;23.77;15.83;;;13.40;99.90;;;;;;10285917;28;20675;-87
2023/10/25 15:46:27;;;;;;;26.43;17.70;;;12.40;99.90;;;;;;10310453;28;20232;-86
2023/10/25 15:51:32;;;;;;;21.33;14.43;;;11.80;99.90;;;;;;10324556;28;20240;-87
2023/10/25 15:56:34;;;;;;;24.20;16.07;;;11.70;99.90;;;;;;10273284;28;20244;-87
2023/10/25 16:01:37;;;;;;;20.80;13.43;;;11.90;99.90;;;;;;10285980;28;20778;-87
2023/10/25 16:06:45;;;;;;;24.87;15.50;;;12.00;99.90;;;;;;10269369;28;20272;-86
2023/10/25 16:11:48;;;;;;;23.37;16.60;;;12.10;99.90;;;;;;10284403;28;20303;-87
2023/10/25 16:16:50;;;;;;;30.47;18.30;;;12.20;99.90;;;;;;10266418;28;20296;-87
2023/10/25 16:21:53;;;;;;;14.53;10.73;;;12.00;99.90;;;;;;10306221;28;20287;-87
2023/10/25 16:26:56;;;;;;;20.30;16.07;;;12.10;99.90;;;;;;10267659;28;20237;-87
2023/10/25 16:31:59;;;;;;;16.40;11.70;;;12.50;99.90;;;;;;10282020;28;20799;-87
2023/10/25 16:37:03;;;;;;;17.63;12.47;;;12.80;99.90;;;;;;10277404;28;20229;-87
2023/10/25 16:42:10;;;;;;;16.87;13.43;;;12.80;99.90;;;;;;10268407;28;20323;-87
2023/10/25 16:47:13;;;;;;;14.67;11.40;;;13.00;99.90;;;;;;10284761;28;20256;-87
2023/10/25 16:52:15;;;;;;;22.63;15.57;;;13.00;99.90;;;;;;10284783;28;20694;-87
2023/10/25 16:57:18;;;;;;;20.50;12.80;;;13.20;99.90;;;;;;10284991;28;20680;-87
2023/10/25 17:02:22;;;;;;;16.93;13.70;;;13.20;99.90;;;;;;10287675;28;20369;-87
2023/10/25 17:07:25;;;;;;;30.43;17.90;;;13.40;99.90;;;;;;10283189;28;20250;-86
2023/10/25 17:12:27;;;;;;;26.50;17.77;;;13.40;99.90;;;;;;10264977;28;20234;-88
2023/10/25 17:17:30;;;;;;;29.87;21.33;;;13.30;99.90;;;;;;10282259;28;20284;-87
2023/10/25 17:22:33;;;;;;;33.13;23.50;;;12.80;99.90;;;;;;10272416;28;20274;-88
2023/10/25 17:27:36;;;;;;;42.57;32.57;;;12.10;99.90;;;;;;10300494;28;20260;-88
2023/10/25 17:32:38;;;;;;;32.67;24.17;;;11.50;99.90;;;;;;10325260;28;20298;-87
2023/10/25 17:37:41;;;;;;;31.63;20.90;;;11.20;99.90;;;;;;10284218;28;20669;-87
2023/10/25 17:42:43;;;;;;;34.17;23.03;;;11.00;99.90;;;;;;10291985;28;20726;-88
2023/10/25 17:47:48;;;;;;;33.60;23.33;;;10.90;99.90;;;;;;10289245;28;20252;-88
2023/10/25 17:52:51;;;;;;;32.17;22.30;;;10.80;99.90;;;;;;10292060;28;20236;-88
2023/10/25 17:57:55;;;;;;;33.47;24.97;;;10.80;99.90;;;;;;9601130;28;10000849;-87
2023/10/25 18:02:58;;;;;;;54.57;39.97;;;10.70;99.90;;;;;;10290993;28;20310;-88
2023/10/25 18:08:01;;;;;;;43.73;31.13;;;10.70;99.90;;;;;;10292742;28;20284;-88
2023/10/25 18:13:04;;;;;;;42.37;29.47;;;10.60;99.90;;;;;;10293761;28;20238;-88
2023/10/25 18:18:07;;;;;;;46.73;28.77;;;10.60;99.90;;;;;;10293562;28;20312;-88
2023/10/25 18:23:11;;;;;;;54.50;33.03;;;10.60;99.90;;;;;;10269386;28;20304;-88
2023/10/25 18:28:14;;;;;;;52.83;33.57;;;10.50;99.90;;;;;;10275048;28;20281;-88
2023/10/25 18:33:18;;;;;;;50.00;30.10;;;10.50;99.90;;;;;;10280733;28;20246;-88
2023/10/25 18:38:22;;;;;;;45.83;27.97;;;10.50;99.90;;;;;;10289201;28;20289;-88
2023/10/25 18:43:25;;;;;;;43.30;27.80;;;10.50;99.90;;;;;;10283818;28;20324;-88
2023/10/25 18:48:28;;;;;;;45.87;27.73;;;10.50;99.90;;;;;;10289450;28;20242;-88
2023/10/25 18:53:31;;;;;;;38.77;25.83;;;10.40;99.90;;;;;;10287015;28;20242;-87
2023/10/25 18:58:33;;;;;;;38.53;27.27;;;10.40;99.90;;;;;;10289171;28;20818;-88
2023/10/25 19:03:36;;;;;;;43.27;29.20;;;10.40;99.90;;;;;;10289344;28;20262;-88
2023/10/25 19:08:40;;;;;;;39.90;27.17;;;10.40;99.90;;;;;;10288242;28;20238;-88
2023/10/25 19:13:43;;;;;;;38.40;27.53;;;10.40;99.90;;;;;;10288733;28;20241;-88
2023/10/25 19:18:46;;;;;;;29.00;18.93;;;10.40;99.90;;;;;;10288570;28;20893;-87
2023/10/25 19:23:52;;;;;;;20.80;13.63;;;10.40;99.90;;;;;;10278497;28;20321;-87
2023/10/25 19:28:55;;;;;;;20.23;14.83;;;10.70;99.90;;;;;;10283743;28;20260;-87
2023/10/25 19:33:57;;;;;;;19.80;16.10;;;11.10;99.90;;;;;;10259036;28;20260;-87
2023/10/25 19:39:04;;;;;;;28.40;19.67;;;11.40;99.90;;;;;;10279853;28;20262;-88
2023/10/25 19:44:07;;;;;;;21.03;16.13;;;11.50;99.90;;;;;;10279602;28;20316;-87
2023/10/25 19:49:10;;;;;;;25.33;17.73;;;11.60;99.90;;;;;;10265235;28;20292;-87
2023/10/25 19:54:13;;;;;;;26.30;19.03;;;11.70;99.90;;;;;;10267839;28;20284;-87
2023/10/25 19:59:17;;;;;;;32.00;20.57;;;11.70;99.90;;;;;;10281604;28;20717;-87
2023/10/25 20:04:19;;;;;;;26.87;19.23;;;11.50;99.90;;;;;;10285434;28;20310;-88
2023/10/25 20:09:22;;;;;;;25.33;19.10;;;11.40;99.90;;;;;;10268504;28;20264;-87
2023/10/25 20:14:25;;;;;;;32.20;22.23;;;11.30;99.90;;;;;;10259469;28;20689;-87
2023/10/25 20:19:27;;;;;;;33.77;21.40;;;11.20;99.90;;;;;;10265322;28;20767;-88
2023/10/25 20:24:31;;;;;;;30.57;21.77;;;11.10;99.90;;;;;;10284905;28;20307;-88
2023/10/25 20:29:34;;;;;;;24.17;16.03;;;10.90;99.90;;;;;;10284413;28;20237;-87
2023/10/25 20:34:36;;;;;;;19.57;14.83;;;10.30;99.90;;;;;;10286371;28;20233;-87
2023/10/25 20:39:39;;;;;;;22.83;16.57;;;10.10;99.90;;;;;;10298071;28;20300;-87
2023/10/25 20:44:44;;;;;;;23.70;14.40;;;10.10;99.90;;;;;;10268509;28;20262;-87
2023/10/25 20:49:47;;;;;;;25.80;17.63;;;9.70;99.90;;;;;;10254346;28;20645;-87
2023/10/25 20:54:50;;;;;;;19.47;11.30;;;9.60;99.90;;;;;;10268832;28;20237;-87
2023/10/25 20:59:53;;;;;;;18.57;14.20;;;9.50;99.90;;;;;;10273757;28;20244;-87
2023/10/25 21:04:56;;;;;;;27.00;17.73;;;9.30;99.90;;;;;;10278492;28;20268;-87
2023/10/25 21:09:58;;;;;;;31.67;16.10;;;9.10;99.90;;;;;;10282108;28;20233;-87
2023/10/25 21:15:00;;;;;;;25.80;16.20;;;9.00;99.90;;;;;;10277021;28;20711;-87
2023/10/25 21:20:04;;;;;;;34.90;20.43;;;8.80;99.90;;;;;;10269753;28;20734;-86
2023/10/25 21:25:07;;;;;;;29.90;19.60;;;8.80;99.90;;;;;;10249507;28;20363;-86
2023/10/25 21:30:10;;;;;;;34.20;22.50;;;8.90;99.90;;;;;;10266496;28;20349;-86
2023/10/25 21:35:12;;;;;;;41.50;23.20;;;8.90;99.90;;;;;;10264050;28;20356;-86
2023/10/25 21:40:15;;;;;;;45.80;21.43;;;9.00;99.90;;;;;;10272403;28;20827;-87
2023/10/25 21:45:18;;;;;;;30.70;19.13;;;9.00;99.90;;;;;;10298489;28;20832;-87
2023/10/25 21:50:21;;;;;;;33.77;21.20;;;8.90;99.90;;;;;;10270409;28;20291;-87
2023/10/25 21:55:23;;;;;;;34.60;22.13;;;8.90;99.90;;;;;;10274948;28;20266;-87
2023/10/25 22:00:25;;;;;;;40.77;24.23;;;8.90;99.90;;;;;;10259132;28;20291;-87
2023/10/25 22:05:28;;;;;;;38.20;21.97;;;8.80;99.90;;;;;;10295102;28;20287;-88
2023/10/25 22:10:30;;;;;;;43.17;23.73;;;8.60;99.90;;;;;;10297257;28;20245;-87
2023/10/25 22:15:33;;;;;;;23.90;17.37;;;8.50;99.90;;;;;;10290642;28;20644;-87
2023/10/25 22:20:35;;;;;;;22.63;15.73;;;8.60;99.90;;;;;;10289370;28;20312;-87
2023/10/25 22:25:38;;;;;;;23.17;16.27;;;8.80;99.90;;;;;;10272419;28;20311;-87
2023/10/25 22:30:40;;;;;;;28.57;18.23;;;9.00;99.90;;;;;;10289408;28;20703;-87
2023/10/25 22:35:43;;;;;;;30.53;18.50;;;8.90;99.90;;;;;;10316499;28;20630;-87
2023/10/25 22:40:46;;;;;;;23.20;16.50;;;8.70;99.90;;;;;;10287695;28;20261;-87
2023/10/25 22:45:49;;;;;;;24.03;15.97;;;8.60;99.90;;;;;;10288714;28;20253;-87
2023/10/25 22:50:52;;;;;;;20.37;15.70;;;8.60;99.90;;;;;;10289395;28;20645;-87
2023/10/25 22:55:55;;;;;;;19.53;13.47;;;8.60;99.90;;;;;;10289234;28;20264;-87
2023/10/25 23:00:57;;;;;;;34.87;16.57;;;8.60;99.90;;;;;;10288481;28;21007;-88
2023/10/25 23:06:00;;;;;;;19.30;14.33;;;8.80;99.90;;;;;;10288043;28;20312;-87
2023/10/25 23:11:03;;;;;;;14.07;12.50;;;8.90;99.90;;;;;;10288232;28;20233;-88
2023/10/25 23:16:08;;;;;;;16.57;11.93;;;9.00;99.90;;;;;;10253653;28;20700;-88
2023/10/25 23:21:10;;;;;;;18.70;13.00;;;9.00;99.90;;;;;;10286692;28;20650;-87
2023/10/25 23:26:13;;;;;;;15.53;11.47;;;8.80;99.90;;;;;;10286982;28;20259;-87
2023/10/25 23:31:16;;;;;;;21.33;14.67;;;9.00;99.90;;;;;;10286703;28;20296;-87
2023/10/25 23:36:18;;;;;;;17.13;13.13;;;9.10;99.90;;;;;;10285137;28;20237;-87
2023/10/25 23:41:21;;;;;;;26.67;12.73;;;8.80;99.90;;;;;;10286133;28;20657;-87
2023/10/25 23:46:23;;;;;;;17.43;12.77;;;8.80;99.90;;;;;;10281566;28;20249;-87
2023/10/25 23:51:26;;;;;;;23.67;13.20;;;8.80;99.90;;;;;;10287097;28;20217;-87
2023/10/25 23:56:28;;;;;;;18.87;13.30;;;8.80;99.90;;;;;;10270190;28;20364;-87
